Time;durP1;ratioP1;P1;durP2;ratioP2;P2;SDS_P1;SDS_P2;PMS_P1;PMS_P2;Temp;Humidity;BMP_temperature;BMP_pressure;BME280_temperature;BME280_humidity;BME280_pressure;Samples;Min_cycle;Max_cycle;Signal;HPM_P1;HPM_P2
2022/11/23 00:01:34;;;;;;;;;;;9.30;60.10;;;4.40;88.24;94324.84;4970228;28;19937;-51
2022/11/23 00:04:11;;;;;;;;;;;9.30;60.20;;;4.29;88.75;94323.19;4973341;28;19920;-54
2022/11/23 00:06:41;;;;;;;;;;;9.20;60.10;;;4.22;89.34;94320.00;4972055;28;19989;-51
2022/11/23 00:09:11;;;;;;;;;;;9.20;60.20;;;4.14;89.10;94316.03;4970834;28;19909;-51
2022/11/23 00:11:40;;;;;;;;;;;9.10;60.20;;;4.06;89.24;94326.22;4955634;28;20278;-54
2022/11/23 00:14:05;;;;;;;;;;;9.00;60.20;;;3.96;89.98;94319.06;4954347;28;19957;-49
2022/11/23 00:16:34;;;;;;;;;;;8.90;60.30;;;3.85;90.72;94320.03;4971823;28;20382;-49
2022/11/23 00:19:01;;;;;;;;;;;8.80;60.30;;;3.78;91.17;94320.25;4971800;28;19914;-51
2022/11/23 00:21:30;;;;;;;;;;;8.80;60.40;;;3.70;91.48;94312.81;4967405;28;20404;-52
2022/11/23 00:23:56;;;;;;;;;;;8.70;60.50;;;3.59;92.22;94311.94;4953564;28;19909;-49
2022/11/23 00:26:22;;;;;;;;;;;8.60;60.60;;;3.54;92.89;94316.38;4953814;28;19980;-50
2022/11/23 00:28:51;;;;;;;;;;;8.50;60.60;;;3.50;92.48;94310.81;4954437;28;20332;-51
2022/11/23 00:31:19;;;;;;;;;;;8.50;60.70;;;3.44;92.58;94312.59;4950860;28;20008;-50
2022/11/23 00:33:54;;;;;;;;;;;8.40;60.80;;;3.36;94.15;94318.34;4967290;28;19914;-50
2022/11/23 00:36:22;;;;;;;;;;;8.40;61.00;;;3.40;93.61;94316.78;4971349;28;19953;-49
2022/11/23 00:38:49;;;;;;;;;;;8.40;61.10;;;3.41;93.63;94315.72;4969873;28;19961;-50
2022/11/23 00:41:18;;;;;;;;;;;8.40;61.20;;;3.42;93.64;94308.66;4953765;28;19921;-50
2022/11/23 00:43:47;;;;;;;;;;;8.30;61.20;;;3.40;94.06;94316.00;4953586;28;19910;-52
2022/11/23 00:46:15;;;;;;;;;;;8.40;61.40;;;3.38;94.18;94310.97;4954792;28;19909;-50
2022/11/23 00:48:48;;;;;;;;;;;8.30;61.30;;;3.39;94.28;94319.69;4954847;28;20295;-50
2022/11/23 00:51:21;;;;;;;;;;;8.30;61.40;;;3.39;94.53;94327.59;4969585;28;19916;-54
2022/11/23 00:53:48;;;;;;;;;;;8.30;61.50;;;3.39;94.13;94325.75;4936282;28;20001;-55
2022/11/23 00:56:13;;;;;;;;;;;8.30;61.50;;;3.38;94.30;94315.44;4954715;28;19964;-52
2022/11/23 00:59:02;;;;;;;;;;;8.30;61.60;;;3.36;94.44;94320.97;4971172;28;19999;-50
2022/11/23 01:01:38;;;;;;;;;;;8.30;61.60;;;3.34;94.92;94317.78;4969698;28;19967;-51
2022/11/23 01:04:09;;;;;;;;;;;8.30;61.60;;;3.34;95.58;94315.16;4943846;28;19914;-52
2022/11/23 01:06:38;;;;;;;;;;;8.30;61.70;;;3.33;95.60;94313.56;4969574;28;19937;-51
2022/11/23 01:09:28;;;;;;;;;;;8.30;61.70;;;3.32;96.19;94314.63;4953459;28;19921;-54
2022/11/23 01:11:56;;;;;;;;;;;8.30;61.80;;;3.34;96.30;94317.00;4962770;28;19914;-52
2022/11/23 01:14:33;;;;;;;;;;;8.30;61.90;;;3.37;95.92;94316.50;4969864;28;19917;-53
2022/11/23 01:16:59;;;;;;;;;;;8.30;62.00;;;3.39;95.77;94325.75;4970739;28;20005;-56
2022/11/23 01:19:29;;;;;;;;;;;8.30;62.10;;;3.40;96.17;94322.06;4969698;28;20455;-56
2022/11/23 01:21:58;;;;;;;;;;;8.30;62.10;;;3.41;95.92;94318.38;4954701;28;19992;-52
2022/11/23 01:24:32;;;;;;;;;;;8.30;62.20;;;3.42;95.68;94322.59;4953676;28;19950;-51
2022/11/23 01:27:00;;;;;;;;;;;8.30;62.20;;;3.47;95.30;94321.84;4965535;28;19920;-52
2022/11/23 01:29:29;;;;;;;;;;;8.30;62.30;;;3.50;95.08;94316.06;4954599;28;20015;-53
2022/11/23 01:31:58;;;;;;;;;;;8.30;62.30;;;3.54;94.88;94313.72;4950207;28;20277;-53
2022/11/23 01:34:24;;;;;;;;;;;8.30;62.30;;;3.52;94.52;94314.00;4970517;28;19952;-50
2022/11/23 01:37:02;;;;;;;;;;;8.40;62.30;;;3.52;94.50;94308.72;4971823;28;19953;-51
2022/11/23 01:39:31;;;;;;;;;;;8.40;62.60;;;3.54;94.39;94311.91;4962054;28;20008;-53
2022/11/23 01:41:59;;;;;;;;;;;8.40;62.20;;;3.53;93.66;94306.88;4970914;28;20394;-49
2022/11/23 01:44:34;;;;;;;;;;;8.30;62.10;;;3.45;93.55;94318.69;4970744;28;19917;-50
2022/11/23 01:47:06;;;;;;;;;;;8.30;62.00;;;3.35;93.26;94314.09;4954408;28;19914;-53
2022/11/23 01:49:42;;;;;;;;;;;8.20;61.90;;;3.24;93.74;94310.59;4952602;28;20286;-50
2022/11/23 01:52:17;;;;;;;;;;;8.20;61.90;;;3.15;93.01;94316.56;4970038;28;19914;-52
2022/11/23 01:54:52;;;;;;;;;;;8.10;61.90;;;2.99;93.38;94320.88;4952637;28;19925;-51
2022/11/23 01:57:47;;;;;;;;;;;8.00;61.90;;;2.84;94.28;94326.75;4950107;28;20005;-52
2022/11/23 02:00:14;;;;;;;;;;;7.90;61.80;;;2.70;95.17;94321.09;4956361;28;19992;-50
2022/11/23 02:02:52;;;;;;;;;;;7.70;61.80;;;2.58;95.42;94315.16;4969049;28;19922;-53
2022/11/23 02:05:26;;;;;;;;;;;7.60;61.80;;;2.46;94.79;94314.50;4958829;28;20004;-50
2022/11/23 02:07:52;;;;;;;;;;;7.50;61.80;;;2.29;94.90;94317.19;4951056;28;20045;-53
2022/11/23 02:10:30;;;;;;;;;;;7.40;61.90;;;2.15;95.50;94326.44;4955260;28;19940;-51
2022/11/23 02:13:05;;;;;;;;;;;7.20;61.90;;;2.01;96.03;94313.66;4953775;28;20016;-49
2022/11/23 02:15:34;;;;;;;;;;;7.10;62.00;;;1.88;96.17;94314.00;4970260;28;19921;-55
2022/11/23 02:18:08;;;;;;;;;;;7.00;62.10;;;1.78;96.67;94313.84;4969940;28;20393;-52
2022/11/23 02:20:34;;;;;;;;;;;6.90;62.30;;;1.65;97.16;94312.34;4952492;28;19909;-52
2022/11/23 02:23:45;;;;;;;;;;;6.80;62.30;;;1.58;98.19;94316.97;4966236;28;19910;-52
2022/11/23 02:26:46;;;;;;;;;;;6.60;62.40;;;1.48;99.55;94317.59;4934780;29;19921;-53
2022/11/23 02:29:25;;;;;;;;;;;6.50;62.60;;;1.46;99.71;94322.28;4894174;29;19914;-51
2022/11/23 02:31:52;;;;;;;;;;;6.40;62.70;;;1.42;100.00;94325.63;4943695;28;19956;-50
2022/11/23 02:34:18;;;;;;;;;;;6.40;62.90;;;1.36;100.00;94325.53;4950789;29;19910;-50
2022/11/23 02:36:56;;;;;;;;;;;6.30;63.00;;;1.28;100.00;94325.13;4950390;29;19953;-55
2022/11/23 02:39:43;;;;;;;;;;;6.30;63.00;;;1.21;100.00;94322.66;4957950;28;19922;-52
2022/11/23 02:42:09;;;;;;;;;;;6.20;63.10;;;1.16;100.00;94319.97;4951527;28;19921;-51
2022/11/23 02:45:14;;;;;;;;;;;6.10;63.20;;;1.13;100.00;94323.06;4949746;29;19910;-54
2022/11/23 02:47:42;;;;;;;;;;;6.10;64.10;;;1.04;100.00;94311.34;4962073;28;19960;-53
2022/11/23 02:50:11;;;;;;;;;;;6.00;63.30;;;1.01;100.00;94311.81;4965447;28;19910;-53
2022/11/23 02:52:37;;;;;;;;;;;6.00;63.40;;;0.95;100.00;94318.00;4951439;29;19933;-50
2022/11/23 02:55:03;;;;;;;;;;;5.90;63.50;;;0.88;100.00;94315.53;4951555;29;19910;-56
2022/11/23 02:57:28;;;;;;;;;;;5.80;63.40;;;0.84;100.00;94320.41;4957779;28;19921;-51
2022/11/23 02:59:54;;;;;;;;;;;5.80;63.50;;;0.77;100.00;94314.53;4950034;29;20057;-50
2022/11/23 03:02:20;;;;;;;;;;;5.80;63.50;;;0.78;100.00;94315.31;4952146;28;20297;-53
2022/11/23 03:04:48;;;;;;;;;;;5.70;63.70;;;0.77;100.00;94317.16;4953385;28;20005;-53
2022/11/23 03:07:14;;;;;;;;;;;5.70;63.80;;;0.73;100.00;94321.28;4966995;28;20444;-55
2022/11/23 03:09:52;;;;;;;;;;;5.70;63.80;;;0.70;100.00;94324.38;4952226;28;19917;-50
2022/11/23 03:12:17;;;;;;;;;;;5.70;63.90;;;0.64;100.00;94320.06;4953595;28;19909;-51
2022/11/23 03:14:43;;;;;;;;;;;5.60;63.90;;;0.64;100.00;94318.22;4971186;28;20395;-51
2022/11/23 03:17:09;;;;;;;;;;;5.60;64.00;;;0.60;100.00;94311.88;4972692;28;20066;-50
2022/11/23 03:19:35;;;;;;;;;;;5.60;64.10;;;0.62;100.00;94309.78;4954748;28;20048;-52
2022/11/23 03:22:03;;;;;;;;;;;5.60;64.20;;;0.66;100.00;94310.16;4956996;28;19909;-50
2022/11/23 03:24:32;;;;;;;;;;;5.50;64.20;;;0.60;100.00;94311.88;4953295;28;19918;-49
2022/11/23 03:26:59;;;;;;;;;;;5.50;64.30;;;0.53;100.00;94305.94;4955762;28;20055;-49
2022/11/23 03:29:30;;;;;;;;;;;5.50;64.30;;;0.51;100.00;94309.84;4956815;28;19909;-50
2022/11/23 03:31:56;;;;;;;;;;;5.50;64.30;;;0.44;100.00;94313.41;4964559;28;20429;-50
2022/11/23 03:34:22;;;;;;;;;;;5.40;65.00;;;0.39;100.00;94304.63;4973673;28;20040;-53
2022/11/23 03:36:57;;;;;;;;;;;5.40;64.30;;;0.36;100.00;94298.03;4956906;28;19953;-49
2022/11/23 03:39:26;;;;;;;;;;;5.40;64.30;;;0.34;100.00;94307.16;4972824;28;19914;-50
2022/11/23 03:41:51;;;;;;;;;;;5.30;64.30;;;0.29;100.00;94296.59;4973494;28;19914;-52
2022/11/23 03:44:17;;;;;;;;;;;5.30;64.40;;;0.29;100.00;94291.34;4971741;28;20387;-51
2022/11/23 03:46:43;;;;;;;;;;;5.30;64.40;;;0.27;100.00;94290.78;4954237;28;20356;-49
2022/11/23 03:49:09;;;;;;;;;;;5.30;64.50;;;0.27;100.00;94288.94;4954340;28;19917;-50
2022/11/23 03:51:34;;;;;;;;;;;5.30;64.60;;;0.22;100.00;94288.84;4953652;28;19917;-49
2022/11/23 03:54:00;;;;;;;;;;;5.30;64.70;;;0.26;100.00;94286.56;4956514;28;19913;-51
2022/11/23 03:56:29;;;;;;;;;;;5.20;64.70;;;0.27;100.00;94283.69;4969759;28;20033;-49
2022/11/23 03:59:01;;;;;;;;;;;5.30;64.90;;;0.25;100.00;94290.19;4969150;28;20332;-50
2022/11/23 04:01:32;;;;;;;;;;;5.30;64.90;;;0.25;100.00;94283.13;4964090;28;19951;-55
2022/11/23 04:04:01;;;;;;;;;;;5.30;64.90;;;0.24;100.00;94281.53;4982437;28;19921;-54
2022/11/23 04:06:27;;;;;;;;;;;5.30;64.90;;;0.26;100.00;94278.72;4993503;28;20268;-58
2022/11/23 04:08:56;;;;;;;;;;;5.30;64.90;;;0.26;100.00;94279.50;4973076;28;19913;-58
2022/11/23 04:11:21;;;;;;;;;;;5.30;64.90;;;0.27;100.00;94272.44;4991000;28;20009;-58
2022/11/23 04:13:47;;;;;;;;;;;5.30;64.90;;;0.22;100.00;94276.56;4991472;28;20356;-58
2022/11/23 04:16:13;;;;;;;;;;;5.30;64.90;;;0.21;100.00;94277.56;4991146;28;19992;-57
2022/11/23 04:18:39;;;;;;;;;;;5.30;64.90;;;0.22;100.00;94276.56;4990214;28;20319;-58
2022/11/23 04:21:05;;;;;;;;;;;5.20;64.90;;;0.17;100.00;94273.03;4991054;28;19910;-55
2022/11/23 04:23:34;;;;;;;;;;;5.20;64.90;;;0.12;100.00;94268.47;4992054;28;19936;-58
2022/11/23 04:26:00;;;;;;;;;;;5.20;64.80;;;0.06;100.00;94269.38;4992127;28;19945;-52
2022/11/23 04:28:25;;;;;;;;;;;5.10;64.80;;;0.05;100.00;94261.78;4998936;28;20407;-58
2022/11/23 04:30:54;;;;;;;;;;;5.10;64.90;;;0.10;100.00;94254.84;4991329;28;19914;-58
2022/11/23 04:33:30;;;;;;;;;;;5.00;64.90;;;0.07;100.00;94259.75;4994308;28;19909;-58
2022/11/23 04:35:59;;;;;;;;;;;5.00;65.00;;;0.00;100.00;94254.63;4992351;28;20237;-54
2022/11/23 04:38:25;;;;;;;;;;;5.00;65.80;;;-0.03;100.00;94255.09;4990065;28;19916;-58
2022/11/23 04:40:51;;;;;;;;;;;5.00;65.10;;;-0.06;100.00;94248.50;4973940;28;20295;-55
2022/11/23 04:43:22;;;;;;;;;;;4.90;65.10;;;-0.06;100.00;94250.31;4990650;28;19917;-54
2022/11/23 04:45:51;;;;;;;;;;;4.90;65.10;;;-0.05;100.00;94247.44;4991640;28;20316;-56
2022/11/23 04:48:26;;;;;;;;;;;4.90;65.30;;;-0.07;100.00;94251.31;4974588;28;19945;-55
2022/11/23 04:50:55;;;;;;;;;;;4.90;65.30;;;-0.09;100.00;94238.47;4990702;28;19960;-56
2022/11/23 04:53:20;;;;;;;;;;;4.90;65.40;;;-0.07;100.00;94233.00;4974324;28;19913;-55
2022/11/23 04:55:49;;;;;;;;;;;4.90;65.40;;;-0.11;100.00;94237.91;4973591;28;19914;-57
2022/11/23 04:58:21;;;;;;;;;;;4.90;65.50;;;-0.10;100.00;94241.31;4991681;28;19913;-57
2022/11/23 05:00:47;;;;;;;;;;;4.80;65.50;;;-0.03;100.00;94249.84;4989934;28;20379;-56
2022/11/23 05:03:13;;;;;;;;;;;4.80;65.60;;;0.10;100.00;94244.34;4954166;28;19918;-57
2022/11/23 05:05:45;;;;;;;;;;;4.90;65.80;;;0.20;100.00;94247.16;4981083;28;19914;-55
2022/11/23 05:08:10;;;;;;;;;;;4.90;66.00;;;0.30;100.00;94237.91;4971744;28;19979;-54
2022/11/23 05:10:39;;;;;;;;;;;5.00;66.20;;;0.33;100.00;94234.84;4973973;28;19914;-57
2022/11/23 05:13:05;;;;;;;;;;;5.00;66.10;;;0.33;100.00;94237.44;4971688;28;19914;-57
2022/11/23 05:15:31;;;;;;;;;;;5.10;66.10;;;0.27;100.00;94241.78;4986041;28;20283;-55
2022/11/23 05:18:05;;;;;;;;;;;5.10;65.80;;;0.19;100.00;94245.59;4972204;28;20341;-56
2022/11/23 05:20:32;;;;;;;;;;;5.10;65.80;;;0.08;100.00;94243.78;4980105;28;19936;-54
2022/11/23 05:23:01;;;;;;;;;;;5.00;65.70;;;0.04;100.00;94244.50;4986390;28;19914;-56
2022/11/23 05:25:27;;;;;;;;;;;5.00;65.60;;;-0.05;100.00;94241.44;4986337;28;20012;-52
2022/11/23 05:28:02;;;;;;;;;;;5.00;65.50;;;-0.10;100.00;94239.47;4989765;28;19913;-54
2022/11/23 05:30:27;;;;;;;;;;;5.00;65.40;;;-0.22;100.00;94230.06;4973397;28;19953;-54
2022/11/23 05:32:53;;;;;;;;;;;4.90;65.30;;;-0.31;100.00;94237.50;4982037;28;20361;-56
2022/11/23 05:35:22;;;;;;;;;;;4.90;65.20;;;-0.37;100.00;94236.59;4986740;28;19959;-55
2022/11/23 05:38:03;;;;;;;;;;;4.80;65.20;;;-0.38;100.00;94232.34;4976392;28;19964;-55
2022/11/23 05:40:29;;;;;;;;;;;4.70;65.30;;;-0.40;100.00;94234.44;4972816;28;19916;-54
2022/11/23 05:42:56;;;;;;;;;;;4.70;65.40;;;-0.41;100.00;94237.25;4980019;28;19909;-58
2022/11/23 05:45:26;;;;;;;;;;;4.60;65.50;;;-0.46;100.00;94237.94;4971718;28;19924;-55
2022/11/23 05:47:55;;;;;;;;;;;4.60;65.50;;;-0.49;100.00;94235.78;4990870;28;20010;-55
2022/11/23 05:50:26;;;;;;;;;;;4.60;65.50;;;-0.54;100.00;94238.28;4989854;28;19914;-56
2022/11/23 05:52:59;;;;;;;;;;;4.50;65.50;;;-0.55;100.00;94242.72;4989874;28;19976;-56
2022/11/23 05:55:28;;;;;;;;;;;4.50;65.50;;;-0.57;100.00;94242.16;4972438;28;19910;-55
2022/11/23 05:57:54;;;;;;;;;;;4.40;65.60;;;-0.60;100.00;94239.19;4982853;28;19921;-56
2022/11/23 06:00:20;;;;;;;;;;;4.40;65.70;;;-0.66;100.00;94246.13;4969278;28;19909;-56
2022/11/23 06:02:51;;;;;;;;;;;4.40;65.80;;;-0.68;100.00;94247.41;4983918;28;19967;-57
2022/11/23 06:05:20;;;;;;;;;;;4.40;65.80;;;-0.69;100.00;94241.34;4972954;28;19916;-58
2022/11/23 06:07:50;;;;;;;;;;;4.30;65.80;;;-0.72;100.00;94237.38;4972116;28;19910;-58
2022/11/23 06:10:16;;;;;;;;;;;4.30;66.60;;;-0.66;100.00;94245.34;4988595;28;19913;-58
2022/11/23 06:12:44;;;;;;;;;;;4.30;66.00;;;-0.66;100.00;94243.50;4972879;28;20283;-57
2022/11/23 06:15:13;;;;;;;;;;;4.30;66.10;;;-0.63;100.00;94237.81;4988280;28;20385;-58
2022/11/23 06:17:44;;;;;;;;;;;4.30;66.10;;;-0.67;100.00;94241.13;4990410;28;19975;-58
2022/11/23 06:20:10;;;;;;;;;;;4.30;66.10;;;-0.67;100.00;94235.91;4993928;28;19917;-58
2022/11/23 06:22:36;;;;;;;;;;;4.30;66.10;;;-0.70;100.00;94240.56;4992196;28;19949;-57
2022/11/23 06:25:02;;;;;;;;;;;4.30;66.20;;;-0.73;100.00;94241.00;4972725;28;19929;-58
2022/11/23 06:27:27;;;;;;;;;;;4.30;66.20;;;-0.74;100.00;94242.03;4971891;28;20012;-57
2022/11/23 06:29:56;;;;;;;;;;;4.30;66.10;;;-0.72;100.00;94247.06;4989009;28;19910;-57
2022/11/23 06:32:22;;;;;;;;;;;4.30;66.20;;;-0.73;100.00;94248.06;4989834;28;19948;-58
2022/11/23 06:34:47;;;;;;;;;;;4.30;66.30;;;-0.77;100.00;94244.31;4990579;28;19936;-58
2022/11/23 06:37:14;;;;;;;;;;;4.20;66.20;;;-0.73;100.00;94243.63;4973166;28;19913;-55
2022/11/23 06:39:40;;;;;;;;;;;4.30;66.40;;;-0.78;100.00;94237.50;4988187;28;19917;-57
2022/11/23 06:42:05;;;;;;;;;;;4.30;66.40;;;-0.79;100.00;94246.34;4985562;28;19917;-52
2022/11/23 06:44:31;;;;;;;;;;;4.30;66.30;;;-0.79;100.00;94247.13;4967939;28;20008;-53
2022/11/23 06:46:57;;;;;;;;;;;4.20;66.20;;;-0.79;100.00;94254.19;4991070;28;19913;-54
2022/11/23 06:49:24;;;;;;;;;;;4.20;66.30;;;-0.82;100.00;94260.66;4991971;28;19963;-55
2022/11/23 06:51:50;;;;;;;;;;;4.20;66.30;;;-0.82;100.00;94268.50;4975588;28;20004;-56
2022/11/23 06:54:19;;;;;;;;;;;4.20;66.30;;;-0.81;100.00;94264.09;4993420;28;20015;-58
2022/11/23 06:56:44;;;;;;;;;;;4.20;66.30;;;-0.76;100.00;94269.44;4974595;28;19943;-58
2022/11/23 06:59:10;;;;;;;;;;;4.20;66.40;;;-0.72;100.00;94267.97;4992871;28;19935;-55
2022/11/23 07:01:36;;;;;;;;;;;4.30;66.60;;;-0.71;100.00;94275.59;4903248;28;44640;-55
2022/11/23 07:04:02;;;;;;;;;;;4.30;66.50;;;-0.72;100.00;94284.47;4985218;28;19992;-58
2022/11/23 07:06:27;;;;;;;;;;;4.30;66.50;;;-0.73;100.00;94288.06;4991701;28;20326;-56
2022/11/23 07:08:54;;;;;;;;;;;4.30;66.40;;;-0.75;100.00;94292.75;4987338;28;19914;-58
2022/11/23 07:11:20;;;;;;;;;;;4.30;66.40;;;-0.74;100.00;94285.69;4989795;28;19909;-54
2022/11/23 07:13:47;;;;;;;;;;;4.30;66.40;;;-0.67;100.00;94285.59;4973946;28;19913;-58
2022/11/23 07:16:13;;;;;;;;;;;4.40;66.70;;;-0.64;100.00;94287.75;4991845;28;19910;-57
2022/11/23 07:18:39;;;;;;;;;;;4.40;66.60;;;-0.60;100.00;94292.31;4981842;28;19913;-55
2022/11/23 07:21:05;;;;;;;;;;;4.40;66.50;;;-0.60;100.00;94294.13;4986832;28;19909;-57
2022/11/23 07:23:31;;;;;;;;;;;4.40;66.60;;;-0.60;100.00;94292.31;4985436;28;19913;-56
2022/11/23 07:25:56;;;;;;;;;;;4.50;66.60;;;-0.57;100.00;94296.28;4989555;28;20311;-53
2022/11/23 07:28:22;;;;;;;;;;;4.50;66.60;;;-0.53;100.00;94295.63;4991072;28;19921;-57
2022/11/23 07:30:50;;;;;;;;;;;4.50;66.70;;;-0.50;100.00;94297.00;4971236;28;20394;-57
2022/11/23 07:33:16;;;;;;;;;;;4.50;66.70;;;-0.44;100.00;94301.28;4977856;28;20275;-56
2022/11/23 07:35:42;;;;;;;;;;;4.60;66.70;;;-0.39;100.00;94305.88;5004437;28;19910;-58
2022/11/23 07:38:08;;;;;;;;;;;4.60;66.70;;;-0.30;100.00;94304.50;4986997;28;19918;-54
2022/11/23 07:40:38;;;;;;;;;;;4.70;66.80;;;-0.22;100.00;94304.13;4968673;28;19949;-58
2022/11/23 07:43:07;;;;;;;;;;;4.70;66.90;;;-0.17;100.00;94316.56;4983549;28;19913;-57
2022/11/23 07:45:33;;;;;;;;;;;4.80;66.90;;;-0.14;100.00;94316.91;4990952;28;19913;-54
2022/11/23 07:48:06;;;;;;;;;;;4.80;66.90;;;-0.11;100.00;94316.44;4993563;28;19910;-56
2022/11/23 07:50:35;;;;;;;;;;;4.90;66.80;;;-0.08;100.00;94309.94;4971328;28;19910;-56
2022/11/23 07:53:03;;;;;;;;;;;4.90;66.80;;;-0.04;100.00;94301.41;4972280;28;19941;-56
2022/11/23 07:55:30;;;;;;;;;;;5.00;66.80;;;0.04;100.00;94307.34;4971874;28;19977;-55
2022/11/23 07:58:04;;;;;;;;;;;5.10;66.80;;;0.12;100.00;94309.56;5000000;28;19914;-58
2022/11/23 08:00:36;;;;;;;;;;;5.20;66.80;;;0.25;100.00;94304.09;4960506;28;19956;-58
2022/11/23 08:03:03;;;;;;;;;;;5.30;66.80;;;0.33;100.00;94297.69;4967612;28;19922;-56
2022/11/23 08:05:32;;;;;;;;;;;5.40;66.80;;;0.42;100.00;94294.47;4956350;28;19996;-58
2022/11/23 08:08:04;;;;;;;;;;;5.50;66.80;;;0.52;100.00;94287.84;4960978;28;20021;-58
2022/11/23 08:10:33;;;;;;;;;;;5.60;66.80;;;0.63;100.00;94289.66;4977249;28;19921;-58
2022/11/23 08:13:04;;;;;;;;;;;5.70;66.80;;;0.71;100.00;94286.63;4954391;28;19910;-58
2022/11/23 08:15:31;;;;;;;;;;;5.80;66.80;;;0.79;100.00;94281.03;4968455;28;19917;-59
2022/11/23 08:18:00;;;;;;;;;;;5.90;66.80;;;0.85;100.00;94277.47;4972126;28;20792;-58
2022/11/23 08:20:32;;;;;;;;;;;6.00;66.90;;;0.88;100.00;94284.06;4955089;28;20018;-58
2022/11/23 08:22:59;;;;;;;;;;;6.00;66.90;;;0.93;100.00;94282.31;4973851;28;20365;-56
2022/11/23 08:25:27;;;;;;;;;;;6.00;66.90;;;0.97;100.00;94276.59;4970782;28;19910;-56
2022/11/23 08:27:59;;;;;;;;;;;6.10;66.80;;;1.06;100.00;94275.97;4952529;28;19914;-58
2022/11/23 08:30:31;;;;;;;;;;;6.20;66.90;;;1.17;100.00;94279.56;4980950;28;20304;-56
2022/11/23 08:32:57;;;;;;;;;;;6.30;66.90;;;1.29;100.00;94276.88;4967207;28;19914;-56
2022/11/23 08:35:23;;;;;;;;;;;6.50;67.00;;;1.38;100.00;94278.88;4987752;28;19914;-57
2022/11/23 08:37:52;;;;;;;;;;;6.70;66.90;;;1.53;100.00;94280.13;4986487;28;20028;-58
2022/11/23 08:40:21;;;;;;;;;;;6.80;66.90;;;1.68;100.00;94277.72;4984730;28;19914;-56
2022/11/23 08:42:50;;;;;;;;;;;7.10;66.80;;;1.87;100.00;94282.72;4952188;28;19914;-54
2022/11/23 08:45:22;;;;;;;;;;;7.40;66.60;;;2.11;100.00;94280.69;4962890;28;19952;-58
2022/11/23 08:47:51;;;;;;;;;;;7.80;66.40;;;2.36;100.00;94275.75;4952273;28;20337;-55
2022/11/23 08:50:21;;;;;;;;;;;8.20;66.20;;;2.64;100.00;94281.84;4954913;28;19909;-57
2022/11/23 08:52:58;;;;;;;;;;;8.60;66.00;;;2.93;100.00;94274.50;4979444;28;19914;-58
2022/11/23 08:55:26;;;;;;;;;;;9.10;65.70;;;3.18;100.00;94277.38;4964045;28;19910;-54
2022/11/23 08:57:57;;;;;;;;;;;9.60;65.40;;;3.59;100.00;94277.72;4958413;28;20747;-59
2022/11/23 09:00:27;;;;;;;;;;;10.00;65.20;;;3.90;97.52;94289.25;4951493;28;20333;-57
2022/11/23 09:03:00;;;;;;;;;;;10.50;64.70;;;4.27;96.87;94283.13;4967768;28;19945;-59
2022/11/23 09:05:32;;;;;;;;;;;10.90;64.30;;;4.66;92.64;94287.25;4983964;28;19975;-56
2022/11/23 09:08:01;;;;;;;;;;;11.30;64.00;;;5.06;91.39;94286.56;4968853;28;19995;-58
2022/11/23 09:10:30;;;;;;;;;;;11.80;63.70;;;5.38;87.43;94282.91;4976256;28;19913;-57
2022/11/23 09:13:05;;;;;;;;;;;12.20;63.20;;;5.78;86.89;94284.75;4974299;28;19983;-56
2022/11/23 09:15:31;;;;;;;;;;;12.60;62.80;;;5.96;82.22;94288.75;4989513;28;20368;-53
2022/11/23 09:17:57;;;;;;;;;;;13.10;62.50;;;6.32;81.53;94294.75;4991460;28;19920;-55
2022/11/23 09:20:23;;;;;;;;;;;13.40;62.70;;;6.51;78.23;94288.88;4988995;28;19920;-56
2022/11/23 09:22:54;;;;;;;;;;;13.80;61.50;;;6.81;76.49;94288.75;4970643;28;20000;-55
2022/11/23 09:25:26;;;;;;;;;;;14.10;61.00;;;7.02;75.18;94291.28;4984705;28;20383;-58
2022/11/23 09:27:59;;;;;;;;;;;14.50;60.80;;;7.22;74.41;94285.88;4973746;28;19975;-57
2022/11/23 09:30:31;;;;;;;;;;;14.90;60.30;;;7.61;72.87;94290.38;4973278;28;19910;-53
2022/11/23 09:32:57;;;;;;;;;;;15.20;59.90;;;7.81;69.58;94292.88;4989889;28;20372;-53
2022/11/23 09:35:26;;;;;;;;;;;15.70;59.70;;;7.93;68.13;94294.34;4991368;28;19913;-56
2022/11/23 09:38:04;;;;;;;;;;;16.00;59.30;;;8.08;66.23;94294.22;4989647;28;20019;-58
2022/11/23 09:40:37;;;;;;;;;;;16.30;58.70;;;8.30;65.23;94291.91;4990782;28;20129;-58
2022/11/23 09:43:38;;;;;;;;;;;16.60;58.30;;;8.41;64.56;94294.47;4990034;28;20288;-58
2022/11/23 09:46:58;;;;;;;;;;;16.90;58.00;;;8.94;64.49;94291.72;4987788;28;19949;-52
2022/11/23 09:49:58;;;;;;;;;;;17.20;57.70;;;9.40;61.38;94299.06;4999351;28;19913;-54
2022/11/23 09:52:25;;;;;;;;;;;17.50;57.20;;;9.76;58.41;94301.22;5001318;28;19916;-57
2022/11/23 09:54:59;;;;;;;;;;;17.80;56.90;;;9.86;58.48;94303.69;4990795;28;19913;-57
2022/11/23 09:57:31;;;;;;;;;;;18.00;56.50;;;10.03;57.91;94306.63;4973243;28;19917;-55
2022/11/23 10:00:14;;;;;;;;;;;18.20;56.00;;;10.38;58.51;94307.13;4994740;28;20463;-55
2022/11/23 10:02:40;;;;;;;;;;;18.30;55.70;;;10.22;57.83;94301.25;5011916;22;19929;-53
2022/11/23 10:05:09;;;;;;;;;;;18.60;55.30;;;10.35;56.45;94299.72;5001721;28;20385;-51
2022/11/23 10:08:28;;;;;;;;;;;18.70;54.90;;;10.62;54.35;94301.59;4991223;28;20423;-50
2022/11/23 10:11:32;;;;;;;;;;;18.90;54.60;;;10.80;53.88;94294.59;4982200;28;19994;-55
2022/11/23 10:14:05;;;;;;;;;;;19.10;54.20;;;11.02;53.50;94296.56;4991137;28;20414;-52
2022/11/23 10:16:52;;;;;;;;;;;19.30;53.90;;;11.19;53.75;94285.28;4994351;28;20350;-53
2022/11/23 10:19:34;;;;;;;;;;;19.50;53.60;;;11.39;51.87;94278.72;4997094;28;19909;-53
2022/11/23 10:22:26;;;;;;;;;;;19.80;53.50;;;11.56;53.00;94281.53;4993204;28;20288;-51
2022/11/23 10:25:11;;;;;;;;;;;20.00;53.10;;;11.80;50.49;94275.91;4988219;28;19998;-51
2022/11/23 10:27:37;;;;;;;;;;;20.40;53.00;;;12.00;51.53;94271.97;4992884;28;19913;-56
2022/11/23 10:30:13;;;;;;;;;;;20.60;52.70;;;12.31;49.54;94280.00;4992367;28;20411;-55
2022/11/23 10:33:12;;;;;;;;;;;20.90;52.30;;;12.37;47.71;94283.34;4985871;28;19937;-55
2022/11/23 10:35:38;;;;;;;;;;;21.10;51.90;;;12.13;47.99;94281.81;4987608;28;19940;-56
2022/11/23 10:38:13;;;;;;;;;;;21.30;50.90;;;11.91;48.25;94279.13;4972237;28;20375;-53
2022/11/23 10:41:08;;;;;;;;;;;21.30;50.50;;;12.02;47.40;94275.91;4974741;28;19909;-54
2022/11/23 10:43:49;;;;;;;;;;;21.40;50.20;;;12.26;49.01;94280.94;4989577;28;19927;-56
2022/11/23 10:46:29;;;;;;;;;;;21.50;50.00;;;12.46;46.73;94268.94;4990925;28;19913;-53
2022/11/23 10:49:29;;;;;;;;;;;21.60;49.70;;;12.25;48.83;94275.88;4973326;28;19909;-56
2022/11/23 10:52:02;;;;;;;;;;;21.70;49.60;;;12.18;50.45;94272.88;4937753;28;20384;-55
2022/11/23 10:54:50;;;;;;;;;;;21.70;49.30;;;12.33;47.88;94277.03;4989564;28;19920;-54
2022/11/23 10:57:42;;;;;;;;;;;21.70;49.00;;;12.47;49.03;94273.19;4988626;28;19913;-55
2022/11/23 11:00:14;;;;;;;;;;;21.80;48.70;;;12.66;48.61;94269.47;4988443;28;20002;-54
2022/11/23 11:02:53;;;;;;;;;;;21.80;48.70;;;12.78;49.35;94266.22;4989414;28;19918;-55
2022/11/23 11:05:48;;;;;;;;;;;22.00;48.60;;;12.78;48.30;94267.00;4992207;28;20334;-53
2022/11/23 11:08:20;;;;;;;;;;;22.10;48.50;;;12.96;47.89;94263.28;4973505;28;19916;-52
2022/11/23 11:11:00;;;;;;;;;;;22.20;48.40;;;13.03;46.03;94259.34;4979971;28;19925;-55
2022/11/23 11:13:46;;;;;;;;;;;22.30;48.00;;;13.07;47.33;94252.31;4979858;28;19916;-57
2022/11/23 11:16:36;;;;;;;;;;;22.50;47.60;;;13.02;45.15;94247.88;4976633;28;19955;-53
2022/11/23 11:19:34;;;;;;;;;;;22.50;47.00;;;12.85;45.00;94245.97;4995314;28;20401;-56
2022/11/23 11:22:37;;;;;;;;;;;22.50;46.30;;;13.22;45.24;94243.03;4989267;28;19928;-53
2022/11/23 11:25:05;;;;;;;;;;;22.50;46.20;;;13.39;43.83;94240.41;4991468;28;19921;-56
2022/11/23 11:27:32;;;;;;;;;;;22.60;46.20;;;13.69;43.77;94233.31;4990523;28;19913;-55
2022/11/23 11:30:19;;;;;;;;;;;22.70;46.30;;;13.55;41.53;94233.47;4972690;28;19959;-56
2022/11/23 11:33:35;;;;;;;;;;;22.90;46.20;;;13.43;41.72;94236.78;4980821;28;20375;-54
2022/11/23 11:36:09;;;;;;;;;;;23.00;45.60;;;13.46;44.66;94232.69;4906991;28;19910;-54
2022/11/23 11:38:39;;;;;;;;;;;23.00;45.60;;;13.64;43.72;94228.13;4950649;28;19926;-52
2022/11/23 11:41:13;;;;;;;;;;;23.20;45.60;;;13.79;41.03;94222.28;4989834;28;19913;-56
2022/11/23 11:43:48;;;;;;;;;;;23.30;45.30;;;13.80;42.62;94215.81;4990270;28;20325;-57
2022/11/23 11:46:24;;;;;;;;;;;23.50;45.10;;;13.87;42.63;94210.00;4992052;28;19910;-52